Time;durP1;ratioP1;P1;durP2;ratioP2;P2;SDS_P1;SDS_P2;PMS_P1;PMS_P2;Temp;Humidity;BMP_temperature;BMP_pressure;BME280_temperature;BME280_humidity;BME280_pressure;Samples;Min_cycle;Max_cycle;Signal;HPM_P1;HPM_P2
2023/11/16 00:01:38;;;;;;;27.47;8.90;;;8.40;92.10;;;;;;775620;185;26470;-86
2023/11/16 00:04:14;;;;;;;36.57;16.83;;;8.30;92.10;;;;;;774622;186;26462;-85
2023/11/16 00:06:51;;;;;;;21.83;7.30;;;8.30;92.00;;;;;;774418;184;26510;-87
2023/11/16 00:09:27;;;;;;;44.97;20.30;;;8.40;91.90;;;;;;773789;185;26535;-86
2023/11/16 00:11:58;;;;;;;31.03;12.00;;;8.30;92.00;;;;;;773593;185;26473;-86
2023/11/16 00:14:33;;;;;;;33.40;13.80;;;8.30;91.90;;;;;;773613;185;26489;-86
2023/11/16 00:17:08;;;;;;;20.60;8.60;;;8.30;91.90;;;;;;773662;185;26489;-86
2023/11/16 00:19:31;;;;;;;25.30;10.87;;;8.30;91.80;;;;;;773400;185;26502;-86
2023/11/16 00:22:02;;;;;;;21.70;10.00;;;8.40;91.80;;;;;;773696;185;27175;-88
2023/11/16 00:24:29;;;;;;;22.67;11.07;;;8.30;92.10;;;;;;773615;184;27126;-87
2023/11/16 00:29:35;;;;;;;103.57;48.70;;;8.20;92.00;;;;;;773211;184;26478;-86
2023/11/16 00:32:15;;;;;;;94.53;40.27;;;8.20;92.20;;;;;;773083;184;27047;-86
2023/11/16 00:34:52;;;;;;;70.67;31.57;;;8.20;92.20;;;;;;773184;184;26515;-87
2023/11/16 00:37:18;;;;;;;97.07;39.73;;;8.20;92.10;;;;;;773047;184;27060;-88
2023/11/16 00:39:47;;;;;;;22.77;8.53;;;8.20;92.20;;;;;;773144;186;26544;-86
2023/11/16 00:42:13;;;;;;;22.40;8.73;;;8.20;92.10;;;;;;773094;185;26634;-86
2023/11/16 00:44:40;;;;;;;17.00;5.23;;;8.20;92.00;;;;;;773153;185;26512;-86
2023/11/16 00:47:06;;;;;;;21.97;9.13;;;8.20;92.20;;;;;;773022;185;26622;-87
2023/11/16 00:49:33;;;;;;;14.67;5.90;;;8.20;92.20;;;;;;773048;186;26497;-86
2023/11/16 00:52:00;;;;;;;15.77;5.30;;;8.20;92.30;;;;;;773078;186;26499;-87
2023/11/16 00:54:26;;;;;;;24.50;10.10;;;8.30;92.10;;;;;;773009;185;26499;-86
2023/11/16 00:56:54;;;;;;;18.33;8.13;;;8.30;91.90;;;;;;772990;186;26490;-87
2023/11/16 00:59:25;;;;;;;19.73;8.17;;;8.40;91.70;;;;;;773104;184;26473;-87
2023/11/16 01:01:57;;;;;;;25.60;8.20;;;8.40;91.40;;;;;;774543;183;26479;-87
2023/11/16 01:04:22;;;;;;;18.60;6.97;;;8.40;91.50;;;;;;774954;185;26542;-88
2023/11/16 01:06:49;;;;;;;32.07;14.10;;;8.40;91.70;;;;;;774652;185;26484;-86
2023/11/16 01:09:16;;;;;;;16.53;7.90;;;8.30;91.80;;;;;;774569;185;26732;-87
2023/11/16 01:14:37;;;;;;;17.50;4.27;;;8.30;91.90;;;;;;761950;185;26486;-87
2023/11/16 01:17:11;;;;;;;13.27;5.23;;;8.30;91.80;;;;;;773962;184;26486;-86
2023/11/16 01:19:32;;;;;;;14.17;4.40;;;8.20;91.60;;;;;;773139;185;26498;-87
2023/11/16 01:21:58;;;;;;;13.80;3.73;;;8.30;91.80;;;;;;773436;185;26461;-87
2023/11/16 01:24:24;;;;;;;17.37;4.80;;;8.30;91.90;;;;;;773473;185;26527;-87
2023/11/16 01:26:53;;;;;;;13.57;4.30;;;8.30;91.80;;;;;;773618;186;26526;-87
2023/11/16 01:29:19;;;;;;;10.40;3.77;;;8.40;91.80;;;;;;773729;185;26486;-87
2023/11/16 01:31:54;;;;;;;10.00;4.40;;;8.50;91.40;;;;;;773512;186;26479;-87
2023/11/16 01:34:18;;;;;;;12.63;3.77;;;8.50;91.60;;;;;;773435;185;26473;-88
2023/11/16 01:36:45;;;;;;;18.70;4.93;;;8.50;91.30;;;;;;773553;186;26489;-87
2023/11/16 01:39:11;;;;;;;15.13;5.67;;;8.60;91.00;;;;;;773374;186;27092;-87
2023/11/16 01:41:44;;;;;;;13.53;4.23;;;8.60;91.00;;;;;;774436;185;26502;-87
2023/11/16 01:46:44;;;;;;;13.97;5.13;;;8.60;91.40;;;;;;775124;180;26509;-88
2023/11/16 01:49:10;;;;;;;11.27;3.97;;;8.60;91.30;;;;;;773496;186;26504;-88
2023/11/16 01:51:41;;;;;;;18.23;5.23;;;8.70;90.90;;;;;;773689;185;26483;-87
2023/11/16 01:54:07;;;;;;;11.03;4.20;;;8.70;90.70;;;;;;773143;184;26480;-87
2023/11/16 01:56:34;;;;;;;16.47;3.60;;;8.70;90.80;;;;;;773062;186;28374;-87
2023/11/16 01:59:01;;;;;;;14.93;4.93;;;8.70;90.80;;;;;;772829;185;26519;-88
2023/11/16 02:01:29;;;;;;;15.23;4.23;;;8.70;90.70;;;;;;774415;180;26531;-88
2023/11/16 02:03:56;;;;;;;10.23;3.67;;;8.80;90.70;;;;;;773536;184;26985;-88
2023/11/16 02:06:23;;;;;;;13.93;4.03;;;8.70;90.80;;;;;;773110;185;26506;-87
2023/11/16 02:08:50;;;;;;;10.77;3.23;;;8.80;90.70;;;;;;773153;185;27017;-87
2023/11/16 02:11:16;;;;;;;13.67;3.80;;;8.80;90.60;;;;;;772993;185;27047;-87
2023/11/16 02:13:43;;;;;;;13.07;3.60;;;8.80;90.90;;;;;;774880;183;26482;-86
2023/11/16 02:16:09;;;;;;;18.97;4.43;;;8.80;90.70;;;;;;775045;185;27050;-87
2023/11/16 02:18:38;;;;;;;20.53;8.97;;;8.80;90.50;;;;;;774650;185;26481;-87
2023/11/16 02:21:03;;;;;;;29.27;12.70;;;8.80;90.50;;;;;;774386;185;27050;-87
2023/11/16 02:23:31;;;;;;;41.73;15.83;;;8.80;90.50;;;;;;773915;185;27034;-87
2023/11/16 02:25:56;;;;;;;47.03;21.70;;;8.80;90.30;;;;;;773731;185;26521;-87
2023/11/16 02:28:23;;;;;;;22.97;8.97;;;8.90;90.50;;;;;;773910;185;27045;-87
2023/11/16 02:30:50;;;;;;;12.33;4.57;;;8.90;90.10;;;;;;773808;186;26528;-88
2023/11/16 02:33:16;;;;;;;12.67;4.47;;;8.90;90.40;;;;;;773413;185;26470;-87
2023/11/16 02:35:43;;;;;;;10.73;3.77;;;8.90;90.50;;;;;;773373;186;26486;-90
2023/11/16 02:38:13;;;;;;;9.50;3.53;;;8.90;90.30;;;;;;773384;186;26473;-88
2023/11/16 02:40:39;;;;;;;16.73;3.60;;;8.90;90.30;;;;;;773261;185;26473;-87
2023/11/16 02:43:06;;;;;;;15.17;4.10;;;8.90;90.10;;;;;;773402;185;26485;-88
2023/11/16 02:45:34;;;;;;;15.87;4.10;;;8.90;89.90;;;;;;773311;186;26482;-87
2023/11/16 02:47:59;;;;;;;12.40;3.80;;;9.00;90.10;;;;;;773185;185;26636;-88
2023/11/16 02:50:26;;;;;;;12.00;3.33;;;9.00;90.00;;;;;;772920;185;27776;-87
2023/11/16 02:52:52;;;;;;;8.53;3.67;;;9.00;90.00;;;;;;772901;185;26483;-87
2023/11/16 02:55:24;;;;;;;12.57;3.83;;;9.00;90.30;;;;;;772945;185;26514;-88
2023/11/16 02:57:47;;;;;;;14.97;3.60;;;8.90;90.30;;;;;;772566;185;26511;-87
2023/11/16 03:00:14;;;;;;;12.10;3.80;;;8.90;90.00;;;;;;772974;186;28123;-88
2023/11/16 03:02:41;;;;;;;11.60;4.07;;;9.00;90.00;;;;;;773045;185;26498;-88
2023/11/16 03:05:09;;;;;;;9.23;3.30;;;9.00;90.30;;;;;;773000;185;27051;-88
2023/11/16 03:07:35;;;;;;;28.27;13.47;;;9.00;90.00;;;;;;772810;185;26490;-88
2023/11/16 03:10:03;;;;;;;34.37;14.73;;;9.00;90.00;;;;;;772646;185;27073;-88
2023/11/16 03:12:29;;;;;;;27.53;12.50;;;9.00;90.00;;;;;;772646;185;26470;-88
2023/11/16 03:14:55;;;;;;;18.17;7.93;;;9.00;90.10;;;;;;772606;185;26523;-87
2023/11/16 03:17:23;;;;;;;12.27;4.23;;;9.00;90.20;;;;;;772598;186;26505;-88
2023/11/16 03:19:48;;;;;;;13.80;3.00;;;9.00;90.10;;;;;;772454;186;26490;-87
2023/11/16 03:22:15;;;;;;;9.43;4.07;;;9.00;89.80;;;;;;772734;186;26498;-87
2023/11/16 03:24:42;;;;;;;11.00;4.47;;;9.00;90.00;;;;;;773906;183;26568;-88
2023/11/16 03:27:09;;;;;;;14.87;3.67;;;9.00;90.30;;;;;;774840;185;26509;-87
2023/11/16 03:29:34;;;;;;;12.90;3.83;;;9.00;90.00;;;;;;774280;185;26525;-87
2023/11/16 03:32:02;;;;;;;19.47;7.17;;;9.00;90.30;;;;;;774100;185;26466;-88
2023/11/16 03:34:28;;;;;;;9.53;3.57;;;9.00;90.20;;;;;;773579;185;26515;-88
2023/11/16 03:36:54;;;;;;;13.23;3.70;;;9.00;90.00;;;;;;775344;180;26484;-89
2023/11/16 03:39:22;;;;;;;13.13;3.77;;;9.00;90.30;;;;;;774370;186;27028;-88
2023/11/16 03:41:48;;;;;;;11.03;3.87;;;9.00;90.20;;;;;;773871;185;26503;-88
2023/11/16 03:44:14;;;;;;;11.07;3.70;;;9.00;90.40;;;;;;773483;185;26985;-88
2023/11/16 03:46:41;;;;;;;12.67;3.37;;;9.00;90.20;;;;;;773441;185;26497;-86
2023/11/16 03:49:07;;;;;;;22.10;6.47;;;9.00;90.40;;;;;;773673;185;28823;-88
2023/11/16 03:51:34;;;;;;;8.27;3.53;;;9.00;90.30;;;;;;773588;186;26503;-88
2023/11/16 03:54:00;;;;;;;15.23;4.13;;;9.00;90.30;;;;;;773552;185;27035;-88
2023/11/16 03:56:27;;;;;;;10.53;3.93;;;9.00;90.60;;;;;;773431;186;26501;-87
2023/11/16 03:58:54;;;;;;;12.23;3.63;;;9.00;90.30;;;;;;773532;185;27063;-88
2023/11/16 04:01:20;;;;;;;11.43;4.20;;;8.90;90.50;;;;;;773185;185;26470;-88
2023/11/16 04:03:47;;;;;;;11.27;4.00;;;8.90;90.40;;;;;;773005;186;27020;-86
2023/11/16 04:06:18;;;;;;;9.00;3.80;;;8.90;90.50;;;;;;773001;185;26555;-88
2023/11/16 04:08:44;;;;;;;8.97;3.63;;;8.90;90.60;;;;;;772908;185;26488;-88
2023/11/16 04:11:11;;;;;;;11.90;4.40;;;8.90;90.60;;;;;;773172;185;26473;-87
2023/11/16 04:13:38;;;;;;;11.27;4.03;;;8.80;90.90;;;;;;772966;186;27019;-88
2023/11/16 04:16:07;;;;;;;8.87;3.80;;;8.70;90.70;;;;;;772979;185;26506;-88
2023/11/16 04:18:31;;;;;;;16.17;3.87;;;8.70;91.10;;;;;;772826;185;26511;-87
2023/11/16 04:20:58;;;;;;;8.50;3.27;;;8.60;91.20;;;;;;772932;186;26503;-88
2023/11/16 04:23:25;;;;;;;10.90;3.27;;;8.50;91.70;;;;;;773062;185;27035;-87
2023/11/16 04:25:54;;;;;;;11.30;3.23;;;8.50;91.30;;;;;;773012;185;26493;-88
2023/11/16 04:28:19;;;;;;;11.50;3.60;;;8.50;91.30;;;;;;772825;185;26478;-88
2023/11/16 04:30:45;;;;;;;9.73;3.57;;;8.60;91.40;;;;;;772967;185;26505;-88
2023/11/16 04:33:11;;;;;;;10.77;2.97;;;8.60;91.20;;;;;;772894;185;26478;-87
2023/11/16 04:35:37;;;;;;;11.97;3.40;;;8.60;91.40;;;;;;773244;183;26486;-87
2023/11/16 04:38:04;;;;;;;6.27;3.20;;;8.60;91.00;;;;;;775303;184;26505;-88
2023/11/16 04:40:31;;;;;;;7.93;3.40;;;8.70;91.00;;;;;;774548;185;26474;-87
2023/11/16 04:42:57;;;;;;;14.00;3.67;;;8.60;91.00;;;;;;774344;185;26691;-86
2023/11/16 04:45:26;;;;;;;10.17;3.53;;;8.60;90.70;;;;;;774068;185;26481;-88
2023/11/16 04:47:51;;;;;;;8.37;3.03;;;8.60;90.70;;;;;;773396;185;26571;-88
2023/11/16 04:50:17;;;;;;;9.50;2.90;;;8.60;90.70;;;;;;773556;185;26530;-87
2023/11/16 04:52:44;;;;;;;10.00;2.87;;;8.60;90.50;;;;;;773683;185;26486;-88
2023/11/16 04:55:11;;;;;;;8.10;3.47;;;8.60;90.60;;;;;;773301;186;26464;-87
2023/11/16 04:57:37;;;;;;;15.23;3.30;;;8.60;90.40;;;;;;773176;185;26489;-87
2023/11/16 05:00:10;;;;;;;11.67;3.20;;;8.60;90.50;;;;;;773275;186;26466;-88
2023/11/16 05:02:33;;;;;;;8.37;3.23;;;8.60;90.40;;;;;;773047;185;27025;-87
2023/11/16 05:05:00;;;;;;;9.60;3.37;;;8.50;90.40;;;;;;773334;186;26469;-88
2023/11/16 05:07:26;;;;;;;8.67;3.43;;;8.50;90.80;;;;;;773278;186;27037;-88
2023/11/16 05:09:53;;;;;;;10.23;3.50;;;8.40;90.80;;;;;;773550;186;26474;-87
2023/11/16 05:12:19;;;;;;;10.80;3.80;;;8.40;90.90;;;;;;773286;186;26499;-88
2023/11/16 05:14:46;;;;;;;11.93;3.77;;;8.30;90.70;;;;;;774237;186;26513;-87
2023/11/16 05:31:18;;;;;;;14.30;4.47;;;8.50;90.80;;;;;;742310;177;27283;-88
2023/11/16 05:34:14;;;;;;;;;;;;;;;;;;;;;
2023/11/16 06:04:51;;;;;;;8.43;3.93;;;8.70;89.40;;;;;;718164;180;26527;-89
2023/11/16 06:10:50;;;;;;;;;;;;;;;;;;;;;
2023/11/16 06:18:39;;;;;;;11.87;3.57;;;8.60;89.20;;;;;;776801;181;26636;-88
2023/11/16 06:21:06;;;;;;;9.17;3.10;;;8.60;88.90;;;;;;778761;183;26499;-87
2023/11/16 06:23:32;;;;;;;6.27;2.80;;;8.60;89.40;;;;;;779065;184;26475;-87
2023/11/16 06:25:59;;;;;;;10.00;3.10;;;8.60;89.20;;;;;;778607;184;26511;-88
2023/11/16 06:28:25;;;;;;;9.57;3.67;;;8.60;88.80;;;;;;781388;184;26431;-88
2023/11/16 06:30:52;;;;;;;7.37;3.47;;;8.60;89.60;;;;;;806850;178;26523;-87
2023/11/16 06:33:18;;;;;;;9.20;3.83;;;8.60;88.20;;;;;;806729;178;26997;-87
2023/11/16 06:35:45;;;;;;;12.70;3.50;;;8.60;89.50;;;;;;806756;178;26463;-87
2023/11/16 06:38:13;;;;;;;13.27;3.57;;;8.60;88.60;;;;;;806700;178;27232;-88
2023/11/16 06:40:38;;;;;;;7.97;2.90;;;8.60;88.60;;;;;;806659;178;26471;-87
2023/11/16 06:43:06;;;;;;;10.23;3.00;;;8.60;87.90;;;;;;806669;178;26993;-87
2023/11/16 06:45:37;;;;;;;11.27;2.90;;;8.70;89.20;;;;;;806592;178;26438;-87
2023/11/16 06:48:00;;;;;;;6.80;2.83;;;8.60;88.40;;;;;;806150;178;27045;-87
2023/11/16 06:50:25;;;;;;;6.60;2.73;;;8.60;88.20;;;;;;806597;177;26597;-87
2023/11/16 06:52:52;;;;;;;10.07;2.97;;;8.60;88.00;;;;;;806808;178;26469;-87
2023/11/16 06:55:18;;;;;;;5.90;2.53;;;8.60;87.90;;;;;;805859;178;26441;-87
2023/11/16 06:57:44;;;;;;;9.80;2.93;;;8.60;87.60;;;;;;805851;178;26630;-87
2023/11/16 07:00:15;;;;;;;12.83;3.23;;;8.60;88.10;;;;;;808109;176;26462;-87
2023/11/16 07:02:38;;;;;;;7.50;2.83;;;8.60;88.70;;;;;;807835;177;26438;-87
2023/11/16 07:05:06;;;;;;;10.37;3.20;;;8.60;88.20;;;;;;807654;178;26971;-87
2023/11/16 07:07:32;;;;;;;10.87;3.20;;;8.60;88.60;;;;;;807374;178;27088;-87
2023/11/16 07:09:58;;;;;;;8.70;3.07;;;8.60;87.90;;;;;;806956;177;26467;-87
2023/11/16 07:12:26;;;;;;;11.37;4.20;;;8.60;88.10;;;;;;806978;177;27003;-87
2023/11/16 07:14:52;;;;;;;7.33;3.20;;;8.60;87.60;;;;;;807001;177;26442;-87
2023/11/16 07:17:18;;;;;;;8.23;3.33;;;8.70;87.40;;;;;;806821;178;27008;-87
2023/11/16 07:19:47;;;;;;;14.03;4.27;;;8.70;87.60;;;;;;806502;178;26448;-87
2023/11/16 07:22:12;;;;;;;10.97;4.10;;;8.70;87.40;;;;;;806281;178;26449;-87
2023/11/16 07:24:38;;;;;;;11.57;3.87;;;8.80;87.00;;;;;;806408;178;27676;-87
2023/11/16 07:27:08;;;;;;;12.60;4.43;;;8.80;88.20;;;;;;806669;178;26480;-87
2023/11/16 07:29:31;;;;;;;12.00;4.27;;;8.80;89.10;;;;;;806290;178;26462;-88
2023/11/16 07:31:58;;;;;;;11.80;4.83;;;8.80;89.10;;;;;;806651;178;26989;-87
2023/11/16 07:34:24;;;;;;;14.53;5.23;;;8.70;90.00;;;;;;806675;177;26449;-87
2023/11/16 07:36:51;;;;;;;12.70;4.43;;;8.70;91.20;;;;;;806108;178;26998;-87
2023/11/16 07:39:17;;;;;;;17.00;5.57;;;8.70;90.10;;;;;;806132;178;26476;-87
2023/11/16 07:41:44;;;;;;;15.70;4.20;;;8.60;90.30;;;;;;805758;178;27006;-88
2023/11/16 07:44:11;;;;;;;10.80;5.20;;;8.70;90.40;;;;;;805723;178;26446;-87
2023/11/16 07:46:37;;;;;;;10.17;4.47;;;8.60;90.90;;;;;;805099;178;27032;-88
2023/11/16 07:49:04;;;;;;;11.10;4.30;;;8.60;91.00;;;;;;805904;178;26461;-87
2023/11/16 07:51:30;;;;;;;10.97;4.90;;;8.60;90.90;;;;;;805778;178;26638;-88
2023/11/16 07:53:57;;;;;;;14.27;4.77;;;8.50;90.80;;;;;;805771;178;26438;-88
2023/11/16 07:56:23;;;;;;;13.00;4.40;;;8.60;90.40;;;;;;805807;177;27062;-87
2023/11/16 07:58:52;;;;;;;9.40;4.63;;;8.50;90.00;;;;;;805758;178;26599;-87
2023/11/16 08:01:21;;;;;;;14.03;4.57;;;8.50;90.20;;;;;;805575;178;27009;-87
2023/11/16 08:03:43;;;;;;;9.43;4.07;;;8.50;90.20;;;;;;805361;178;26845;-88
2023/11/16 08:06:12;;;;;;;9.77;3.70;;;8.50;90.60;;;;;;804903;178;28062;-87
2023/11/16 08:08:42;;;;;;;12.93;3.83;;;8.50;90.40;;;;;;805764;178;28037;-87
2023/11/16 08:11:11;;;;;;;9.87;4.10;;;8.50;90.30;;;;;;807100;176;26441;-87
2023/11/16 08:13:36;;;;;;;11.43;4.27;;;8.50;90.50;;;;;;806681;176;26952;-88
2023/11/16 08:16:04;;;;;;;13.17;3.93;;;8.50;90.60;;;;;;789679;179;27018;-87
2023/11/16 08:18:30;;;;;;;15.13;4.10;;;8.60;90.90;;;;;;786896;181;26465;-87
2023/11/16 08:20:56;;;;;;;12.00;4.60;;;8.60;90.70;;;;;;767808;183;27043;-87
2023/11/16 08:23:23;;;;;;;10.50;4.17;;;8.60;90.70;;;;;;790248;181;26569;-86
2023/11/16 08:25:50;;;;;;;10.43;4.43;;;8.70;90.80;;;;;;788587;180;27074;-87
2023/11/16 08:28:19;;;;;;;8.13;4.20;;;8.70;90.20;;;;;;798134;176;26447;-87
2023/11/16 08:30:45;;;;;;;9.00;3.80;;;8.80;89.90;;;;;;800940;178;26453;-88
2023/11/16 08:33:11;;;;;;;7.73;3.90;;;8.80;89.80;;;;;;795273;176;26556;-87
2023/11/16 08:35:37;;;;;;;9.03;3.70;;;8.90;88.70;;;;;;789894;176;26519;-87
2023/11/16 08:38:05;;;;;;;8.40;3.23;;;8.80;88.20;;;;;;792086;176;26421;-88
2023/11/16 08:40:30;;;;;;;10.07;4.30;;;8.80;87.80;;;;;;790021;180;26535;-89
2023/11/16 08:42:57;;;;;;;11.07;3.97;;;8.80;88.10;;;;;;781468;180;26499;-87
2023/11/16 08:45:25;;;;;;;11.30;4.20;;;8.80;87.40;;;;;;773213;180;27011;-87
2023/11/16 08:47:56;;;;;;;14.13;3.63;;;8.90;87.60;;;;;;785032;182;26470;-87
2023/11/16 08:50:19;;;;;;;10.50;3.87;;;8.90;87.00;;;;;;775694;185;26493;-87
2023/11/16 08:52:47;;;;;;;12.60;3.93;;;8.90;86.60;;;;;;807015;177;26432;-87
2023/11/16 08:55:13;;;;;;;8.97;3.40;;;9.00;86.50;;;;;;806997;178;26946;-87
2023/11/16 08:57:41;;;;;;;10.03;3.70;;;9.10;87.40;;;;;;806958;177;26459;-87
2023/11/16 09:02:43;;;;;;;10.57;3.53;;;9.30;86.70;;;;;;787563;182;26410;-87
2023/11/16 09:05:10;;;;;;;9.67;3.80;;;9.40;85.40;;;;;;787453;182;27017;-87
2023/11/16 09:07:34;;;;;;;10.97;3.77;;;9.70;86.30;;;;;;801844;176;26380;-88
2023/11/16 09:10:01;;;;;;;7.67;3.50;;;9.90;85.00;;;;;;780103;184;26597;-87
2023/11/16 09:12:28;;;;;;;14.33;4.17;;;10.00;83.30;;;;;;791651;181;26455;-86
2023/11/16 09:14:53;;;;;;;8.73;3.60;;;10.10;83.30;;;;;;784734;183;26479;-87
2023/11/16 09:17:20;;;;;;;8.97;3.73;;;10.20;84.60;;;;;;784879;182;26529;-89
2023/11/16 09:19:50;;;;;;;15.87;3.70;;;10.10;85.80;;;;;;785424;182;26517;-87
2023/11/16 09:22:13;;;;;;;10.27;3.77;;;10.10;83.90;;;;;;786624;180;26520;-87
2023/11/16 09:24:40;;;;;;;7.90;3.53;;;10.20;82.10;;;;;;793881;181;26452;-87
2023/11/16 09:27:06;;;;;;;8.57;4.10;;;10.10;84.60;;;;;;794308;181;26472;-88
2023/11/16 09:29:36;;;;;;;9.90;3.77;;;10.20;82.80;;;;;;793464;181;26485;-88
2023/11/16 09:31:59;;;;;;;8.50;3.97;;;10.30;81.60;;;;;;793313;181;26513;-88
2023/11/16 09:34:27;;;;;;;6.80;3.67;;;10.50;82.60;;;;;;793477;181;26465;-87
2023/11/16 09:36:53;;;;;;;9.17;3.73;;;10.60;82.20;;;;;;789784;181;26481;-87
2023/11/16 09:42:13;;;;;;;11.67;5.10;;;10.60;84.20;;;;;;787174;180;26546;-87
2023/11/16 09:44:38;;;;;;;9.43;4.30;;;10.70;83.10;;;;;;779804;181;26458;-87
2023/11/16 09:47:05;;;;;;;9.93;4.47;;;10.70;82.00;;;;;;798364;176;26997;-88
2023/11/16 09:49:30;;;;;;;10.23;4.23;;;10.70;82.30;;;;;;803048;176;26365;-88
2023/11/16 09:51:58;;;;;;;11.80;4.60;;;10.80;82.80;;;;;;792700;180;26984;-88
2023/11/16 09:54:24;;;;;;;15.13;5.20;;;10.60;84.20;;;;;;793463;179;26458;-87
2023/11/16 09:56:53;;;;;;;11.87;4.73;;;10.60;83.00;;;;;;808109;176;26973;-88
2023/11/16 09:59:27;;;;;;;13.97;5.37;;;10.60;82.10;;;;;;786258;181;26460;-88
2023/11/16 10:01:46;;;;;;;14.60;4.37;;;10.60;85.60;;;;;;783843;181;26489;-88
2023/11/16 10:04:10;;;;;;;12.40;4.73;;;10.50;83.50;;;;;;790474;177;26450;-88
2023/11/16 10:06:40;;;;;;;10.93;4.30;;;10.50;84.30;;;;;;795191;178;26447;-88
2023/11/16 10:09:12;;;;;;;7.90;4.30;;;10.40;85.20;;;;;;788520;181;26447;-87
2023/11/16 10:11:36;;;;;;;9.73;3.87;;;10.40;83.40;;;;;;788684;178;26439;-88
2023/11/16 10:14:02;;;;;;;10.47;3.90;;;10.50;84.00;;;;;;789432;176;26453;-88
2023/11/16 10:16:29;;;;;;;14.10;4.20;;;10.40;84.80;;;;;;796135;176;26556;-88
2023/11/16 10:18:59;;;;;;;12.17;4.13;;;10.40;83.60;;;;;;778136;184;26478;-88
2023/11/16 10:21:25;;;;;;;10.43;4.10;;;10.40;82.30;;;;;;770677;185;26478;-88
2023/11/16 10:23:52;;;;;;;10.83;4.20;;;10.40;85.60;;;;;;773183;183;26471;-87
2023/11/16 10:26:19;;;;;;;11.73;4.00;;;10.40;85.10;;;;;;786310;180;27275;-89
2023/11/16 10:28:45;;;;;;;10.50;4.33;;;10.40;84.40;;;;;;786577;181;26467;-88
2023/11/16 10:31:15;;;;;;;9.37;4.07;;;10.50;85.40;;;;;;785688;182;26452;-88
2023/11/16 10:33:39;;;;;;;10.77;4.27;;;10.50;85.90;;;;;;786305;180;26492;-88
2023/11/16 10:36:07;;;;;;;8.47;4.03;;;10.50;84.20;;;;;;788758;176;26979;-88
2023/11/16 10:38:32;;;;;;;9.30;4.10;;;10.40;82.60;;;;;;788035;179;26990;-87
2023/11/16 10:40:59;;;;;;;9.70;3.93;;;10.40;83.00;;;;;;787824;182;26436;-87
2023/11/16 10:43:27;;;;;;;9.17;3.97;;;10.50;83.40;;;;;;787672;182;26979;-88
2023/11/16 10:45:53;;;;;;;11.20;4.70;;;10.60;83.30;;;;;;787231;182;26435;-88
2023/11/16 10:48:19;;;;;;;9.80;3.53;;;10.60;82.80;;;;;;787419;182;27235;-89
2023/11/16 10:50:46;;;;;;;9.40;3.90;;;10.50;82.60;;;;;;787406;182;26447;-88
2023/11/16 10:53:17;;;;;;;12.67;4.13;;;10.50;83.60;;;;;;787131;182;27012;-88
2023/11/16 10:55:44;;;;;;;13.33;4.90;;;10.40;84.90;;;;;;788669;180;26464;-87
2023/11/16 10:58:11;;;;;;;12.70;3.60;;;10.40;85.80;;;;;;786748;180;26504;-88
2023/11/16 11:00:39;;;;;;;11.07;4.23;;;10.50;83.80;;;;;;787031;181;26529;-88
2023/11/16 11:03:06;;;;;;;8.37;3.70;;;10.50;82.70;;;;;;786779;182;26441;-87
2023/11/16 11:05:31;;;;;;;13.20;4.50;;;10.60;85.70;;;;;;786721;182;26469;-88
2023/11/16 11:07:57;;;;;;;11.93;4.97;;;10.60;84.60;;;;;;786795;182;26492;-87
2023/11/16 11:10:27;;;;;;;14.43;5.13;;;10.70;85.00;;;;;;786638;182;26991;-87
2023/11/16 11:12:51;;;;;;;8.37;4.00;;;10.70;84.10;;;;;;786331;183;26452;-88
2023/11/16 11:15:29;;;;;;;9.80;3.83;;;10.60;83.10;;;;;;786283;183;27459;-87
2023/11/16 11:17:53;;;;;;;12.00;4.00;;;10.60;84.00;;;;;;786038;183;26488;-87
2023/11/16 11:20:19;;;;;;;12.30;4.00;;;10.60;85.10;;;;;;786438;182;26440;-87
2023/11/16 11:22:46;;;;;;;7.43;3.63;;;10.60;84.00;;;;;;784523;183;26480;-88
2023/11/16 11:25:12;;;;;;;13.07;5.27;;;10.60;82.50;;;;;;786287;180;26492;-88
2023/11/16 11:27:39;;;;;;;37.27;24.27;;;10.60;82.30;;;;;;785155;177;26484;-87
2023/11/16 11:30:09;;;;;;;21.10;11.07;;;10.60;83.30;;;;;;786407;181;26435;-87
2023/11/16 11:32:36;;;;;;;28.03;15.83;;;10.40;81.30;;;;;;786235;180;26483;-87
2023/11/16 11:35:11;;;;;;;15.13;6.73;;;10.40;82.30;;;;;;785970;180;26465;-88
2023/11/16 11:37:38;;;;;;;16.03;5.20;;;10.40;83.80;;;;;;786403;183;26444;-87
2023/11/16 11:40:08;;;;;;;10.77;4.30;;;10.40;84.50;;;;;;786604;183;27003;-88
2023/11/16 11:42:37;;;;;;;9.70;4.27;;;10.40;83.90;;;;;;786330;183;26426;-87
2023/11/16 11:45:00;;;;;;;9.60;3.90;;;10.40;83.70;;;;;;786405;180;26452;-87
2023/11/16 11:47:28;;;;;;;14.33;7.03;;;10.40;84.00;;;;;;789250;182;27067;-87
2023/11/16 11:49:53;;;;;;;38.37;20.77;;;10.40;83.10;;;;;;788152;182;26465;-87
2023/11/16 11:52:20;;;;;;;32.00;20.23;;;10.40;83.10;;;;;;787930;182;27068;-88
2023/11/16 11:54:47;;;;;;;16.13;7.67;;;10.40;83.90;;;;;;787623;179;26453;-88
2023/11/16 11:57:15;;;;;;;9.20;4.50;;;10.40;83.40;;;;;;787272;182;26474;-88
2023/11/16 11:59:40;;;;;;;13.27;4.53;;;10.30;83.10;;;;;;787177;182;26988;-87
2023/11/16 12:02:07;;;;;;;9.90;3.80;;;10.30;84.70;;;;;;787355;182;26450;-87
2023/11/16 12:04:34;;;;;;;10.63;4.50;;;10.30;83.20;;;;;;786994;176;26626;-88
2023/11/16 12:07:03;;;;;;;11.33;4.10;;;10.30;85.80;;;;;;786943;182;26443;-88
2023/11/16 12:09:31;;;;;;;10.50;3.90;;;10.30;83.90;;;;;;787077;180;26480;-88
2023/11/16 12:11:56;;;;;;;14.73;3.97;;;10.30;86.10;;;;;;786988;182;26436;-88
2023/11/16 12:14:23;;;;;;;11.27;3.90;;;10.30;84.60;;;;;;787111;183;26477;-87
2023/11/16 12:20:24;;;;;;;;;;;;;;;;;;;;;
2023/11/16 12:22:27;;;;;;;15.03;4.87;;;10.30;85.20;;;;;;785787;180;27037;-88
2023/11/16 12:27:48;;;;;;;10.87;4.50;;;10.30;86.00;;;;;;764522;187;26503;-88
2023/11/16 12:42:00;;;;;;;;;;;;;;;;;;;;;
2023/11/16 12:44:55;;;;;;;;;;;;;;;;;;;;;
2023/11/16 12:58:53;;;;;;;;;;;;;;;;;;;;;
2023/11/16 13:01:39;;;;;;;9.80;3.37;;;10.40;84.70;;;;;;765349;187;26512;-88
2023/11/16 13:18:07;;;;;;;12.17;4.03;;;10.40;86.80;;;;;;750846;171;26618;-86
2023/11/16 13:26:06;;;;;;;8.97;3.17;;;10.30;84.00;;;;;;731884;175;26568;-86
2023/11/16 13:28:32;;;;;;;9.80;3.93;;;10.30;84.90;;;;;;762979;186;26497;-87
2023/11/16 13:30:59;;;;;;;13.90;3.30;;;10.40;85.10;;;;;;757819;187;26571;-86
2023/11/16 13:33:26;;;;;;;7.53;3.90;;;10.40;84.80;;;;;;757607;187;27010;-87
2023/11/16 13:35:52;;;;;;;10.93;3.77;;;10.40;84.50;;;;;;757403;187;26491;-87
2023/11/16 14:31:08;;;;;;;11.37;4.40;;;10.20;84.90;;;;;;796923;179;26449;-88
2023/11/16 14:34:08;;;;;;;;;;;;;;;;;;;;;
2023/11/16 14:36:24;;;;;;;12.23;4.00;;;10.30;85.50;;;;;;807321;173;26469;-87
2023/11/16 14:38:51;;;;;;;8.33;4.07;;;10.30;87.60;;;;;;814309;176;26974;-87
2023/11/16 14:41:18;;;;;;;7.80;3.90;;;10.30;85.70;;;;;;815116;176;26455;-87
2023/11/16 14:43:44;;;;;;;8.83;3.63;;;10.30;86.90;;;;;;815104;176;26972;-87
2023/11/16 14:46:11;;;;;;;9.83;3.87;;;10.30;85.90;;;;;;803226;176;26466;-87
2023/11/16 14:48:37;;;;;;;13.47;4.77;;;10.40;86.90;;;;;;795703;180;27042;-87
2023/11/16 14:51:04;;;;;;;13.60;4.37;;;10.40;88.30;;;;;;795567;179;26476;-87
2023/11/16 14:53:31;;;;;;;8.80;3.90;;;10.40;85.50;;;;;;795965;180;26496;-87
2023/11/16 14:55:57;;;;;;;10.73;4.33;;;10.40;86.30;;;;;;795706;180;27047;-87
2023/11/16 14:58:26;;;;;;;10.10;3.70;;;10.40;86.40;;;;;;795643;181;26476;-87
2023/11/16 15:00:50;;;;;;;15.57;3.87;;;10.40;85.50;;;;;;795608;180;28094;-88
2023/11/16 15:03:17;;;;;;;14.70;3.83;;;10.30;87.60;;;;;;795761;181;26483;-87
2023/11/16 15:05:44;;;;;;;19.67;4.10;;;10.40;85.60;;;;;;795556;181;26525;-87
2023/11/16 15:08:10;;;;;;;9.03;4.23;;;10.40;87.50;;;;;;795725;180;26463;-87
2023/11/16 15:10:37;;;;;;;17.17;3.80;;;10.40;87.80;;;;;;795784;181;26463;-88
2023/11/16 15:13:06;;;;;;;11.10;4.00;;;10.40;85.40;;;;;;795830;181;26516;-88
2023/11/16 15:15:31;;;;;;;18.80;4.60;;;10.30;85.80;;;;;;796615;180;26520;-87
2023/11/16 15:17:57;;;;;;;15.10;4.30;;;10.40;85.60;;;;;;795695;180;26466;-87
2023/11/16 15:20:23;;;;;;;16.50;6.57;;;10.40;84.80;;;;;;796825;178;27065;-87
2023/11/16 15:22:52;;;;;;;13.43;4.60;;;10.40;87.50;;;;;;798193;180;26474;-87
2023/11/16 15:25:16;;;;;;;13.40;4.00;;;10.40;86.80;;;;;;797415;180;27050;-86
2023/11/16 15:27:43;;;;;;;13.93;4.67;;;10.30;86.30;;;;;;797147;180;26615;-88
2023/11/16 15:30:13;;;;;;;8.47;4.43;;;10.30;87.80;;;;;;796913;180;27001;-88
2023/11/16 15:32:37;;;;;;;10.73;3.77;;;10.30;86.50;;;;;;796449;180;26483;-88
2023/11/16 15:35:04;;;;;;;18.90;4.83;;;10.30;86.70;;;;;;796775;177;26471;-88
2023/11/16 15:37:30;;;;;;;11.53;4.50;;;10.30;87.20;;;;;;796581;179;27005;-88
2023/11/16 15:39:57;;;;;;;20.40;6.93;;;10.30;85.40;;;;;;796089;181;26446;-87